Time;durP1;ratioP1;P1;durP2;ratioP2;P2;SDS_P1;SDS_P2;PMS_P1;PMS_P2;Temp;Humidity;BMP_temperature;BMP_pressure;BME280_temperature;BME280_humidity;BME280_pressure;Samples;Min_cycle;Max_cycle;Signal;HPM_P1;HPM_P2
2023/05/03 00:00:01;;;;;;;;;;;12.30;99.90;;;;;;5059036;28;20031;-75
2023/05/03 00:02:32;;;;;;;0.05;0.05;;;12.30;99.90;;;;;;5053502;28;20281;-74
2023/05/03 00:04:59;;;;;;;0.00;0.00;;;12.40;99.90;;;;;;5052998;28;20095;-74
2023/05/03 00:07:25;;;;;;;0.00;0.00;;;12.30;99.90;;;;;;5061372;28;20044;-74
2023/05/03 00:09:51;;;;;;;0.00;0.00;;;12.30;99.90;;;;;;5056748;28;20110;-74
2023/05/03 00:12:16;;;;;;;0.00;0.00;;;12.40;99.90;;;;;;5041496;28;20490;-74
2023/05/03 00:14:44;;;;;;;0.00;0.00;;;12.40;99.90;;;;;;5055965;28;20024;-74
2023/05/03 00:17:10;;;;;;;0.00;0.00;;;12.30;99.90;;;;;;5055909;28;20028;-75
2023/05/03 00:19:37;;;;;;;0.00;0.00;;;12.30;99.90;;;;;;5056730;28;20078;-74
2023/05/03 00:22:02;;;;;;;0.00;0.00;;;12.40;99.90;;;;;;5052854;28;20021;-74
2023/05/03 00:24:28;;;;;;;0.00;0.00;;;12.30;99.90;;;;;;5059515;28;20024;-74
2023/05/03 00:26:54;;;;;;;0.00;0.00;;;12.40;99.90;;;;;;5065229;28;20313;-74
2023/05/03 00:29:21;;;;;;;0.00;0.00;;;12.30;99.90;;;;;;5066142;28;20024;-74
2023/05/03 00:31:48;;;;;;;0.05;0.05;;;12.30;99.90;;;;;;5066554;28;20025;-74
2023/05/03 00:34:13;;;;;;;;;;;12.30;99.90;;;;;;5056539;28;20063;-74
2023/05/03 00:36:40;;;;;;;0.00;0.00;;;12.30;99.90;;;;;;5057681;28;19954;-75
2023/05/03 00:39:07;;;;;;;;;;;12.30;99.90;;;;;;5058504;28;20054;-74
2023/05/03 00:41:33;;;;;;;0.00;0.00;;;12.40;99.90;;;;;;5060270;28;19926;-74
2023/05/03 00:44:00;;;;;;;;;;;12.30;99.90;;;;;;5066453;28;20020;-74
2023/05/03 00:46:26;;;;;;;0.00;0.00;;;12.30;99.90;;;;;;5054902;28;19911;-74
2023/05/03 00:48:53;;;;;;;0.10;0.10;;;12.30;99.90;;;;;;5054467;28;20029;-74
2023/05/03 00:51:20;;;;;;;0.00;0.00;;;12.30;99.90;;;;;;5054427;28;20124;-75
2023/05/03 00:53:46;;;;;;;0.00;0.00;;;12.30;99.90;;;;;;5046348;28;20024;-74
2023/05/03 00:56:18;;;;;;;0.00;0.00;;;12.30;99.90;;;;;;5054315;28;20024;-74
2023/05/03 00:58:44;;;;;;;0.22;0.22;;;12.30;99.90;;;;;;5074255;28;20276;-74
2023/05/03 01:01:10;;;;;;;;;;;12.30;99.90;;;;;;5064767;28;20028;-74
2023/05/03 01:03:39;;;;;;;0.00;0.00;;;12.30;99.90;;;;;;5055891;28;19912;-74
2023/05/03 01:06:06;;;;;;;0.00;0.00;;;12.30;99.90;;;;;;5064339;28;20020;-74
2023/05/03 01:08:42;;;;;;;0.00;0.00;;;12.40;99.90;;;;;;5053538;28;20067;-74
2023/05/03 01:11:22;;;;;;;0.00;0.00;;;12.30;99.90;;;;;;5053773;28;20112;-74
2023/05/03 01:14:20;;;;;;;0.00;0.00;;;12.30;99.90;;;;;;5054743;28;20036;-74
2023/05/03 01:16:52;;;;;;;0.00;0.00;;;12.30;99.90;;;;;;5055892;28;20063;-75
2023/05/03 01:19:43;;;;;;;0.00;0.00;;;12.30;99.90;;;;;;5046234;28;20039;-74
2023/05/03 01:22:25;;;;;;;0.00;0.00;;;12.30;99.90;;;;;;5060757;28;20029;-75
2023/05/03 01:25:13;;;;;;;0.00;0.00;;;12.20;99.90;;;;;;5061196;28;20039;-74
2023/05/03 01:27:40;;;;;;;0.00;0.00;;;12.20;99.90;;;;;;5054144;28;20031;-74
2023/05/03 01:30:09;;;;;;;0.00;0.00;;;12.10;99.90;;;;;;5077710;28;20067;-74
2023/05/03 01:32:44;;;;;;;0.80;0.43;;;12.10;99.90;;;;;;5059627;28;20101;-74
2023/05/03 01:35:36;;;;;;;0.00;0.00;;;12.20;99.90;;;;;;5055666;28;20108;-74
2023/05/03 01:38:03;;;;;;;0.00;0.00;;;12.20;99.90;;;;;;5030386;28;20067;-74
2023/05/03 01:40:35;;;;;;;0.00;0.00;;;12.10;99.90;;;;;;5060802;28;20070;-75
2023/05/03 01:43:03;;;;;;;0.00;0.00;;;12.10;99.90;;;;;;5056753;28;20056;-74
2023/05/03 01:45:29;;;;;;;0.00;0.00;;;12.10;99.90;;;;;;5079883;28;20035;-74
2023/05/03 01:47:56;;;;;;;0.00;0.00;;;12.00;99.90;;;;;;5061457;28;20746;-74
2023/05/03 01:50:27;;;;;;;0.00;0.00;;;12.00;99.90;;;;;;5061286;28;20046;-75
2023/05/03 01:52:54;;;;;;;0.00;0.00;;;12.00;99.90;;;;;;5063645;28;20617;-74
2023/05/03 01:55:20;;;;;;;0.00;0.00;;;12.10;99.90;;;;;;5053991;28;20082;-74
2023/05/03 01:57:45;;;;;;;0.00;0.00;;;12.10;99.90;;;;;;5057133;28;20029;-74
2023/05/03 02:00:12;;;;;;;0.00;0.00;;;12.10;99.90;;;;;;5072427;28;20485;-75
2023/05/03 02:02:40;;;;;;;0.05;0.05;;;12.10;99.90;;;;;;5056937;28;20020;-74
2023/05/03 02:05:06;;;;;;;0.00;0.00;;;12.10;99.90;;;;;;5055993;28;20297;-75
2023/05/03 02:07:33;;;;;;;0.00;0.00;;;12.10;99.90;;;;;;5059545;28;20024;-74
2023/05/03 02:10:00;;;;;;;0.00;0.00;;;12.10;99.90;;;;;;5060620;28;20031;-75
2023/05/03 02:12:26;;;;;;;0.00;0.00;;;12.10;99.90;;;;;;5064754;28;20025;-74
2023/05/03 02:14:52;;;;;;;0.17;0.17;;;12.10;99.90;;;;;;5053219;28;20113;-75
2023/05/03 02:17:19;;;;;;;0.00;0.00;;;12.10;99.90;;;;;;5056966;28;20028;-74
2023/05/03 02:19:47;;;;;;;0.00;0.00;;;12.10;99.90;;;;;;5065021;28;20103;-74
2023/05/03 02:22:14;;;;;;;0.10;0.10;;;12.10;99.90;;;;;;5054642;28;20373;-75
2023/05/03 02:24:40;;;;;;;0.00;0.00;;;12.10;99.90;;;;;;5053009;28;20451;-75
2023/05/03 02:27:06;;;;;;;0.00;0.00;;;12.10;99.90;;;;;;5058864;28;20094;-74
2023/05/03 02:29:31;;;;;;;0.10;0.10;;;12.10;99.90;;;;;;5053501;28;20145;-74
2023/05/03 02:31:58;;;;;;;0.00;0.00;;;12.10;99.90;;;;;;5064412;28;20267;-75
2023/05/03 02:34:26;;;;;;;0.00;0.00;;;12.10;99.90;;;;;;5047241;28;20116;-75
2023/05/03 02:36:53;;;;;;;0.00;0.00;;;12.10;99.90;;;;;;5052438;28;20028;-74
2023/05/03 02:39:20;;;;;;;0.00;0.00;;;12.10;99.90;;;;;;5052577;28;20052;-75
2023/05/03 02:41:46;;;;;;;0.00;0.00;;;12.10;99.90;;;;;;5058333;28;20032;-74
2023/05/03 02:44:12;;;;;;;0.10;0.10;;;12.10;99.90;;;;;;5048046;28;20024;-74
2023/05/03 02:46:39;;;;;;;0.00;0.00;;;12.10;99.90;;;;;;5049930;28;20045;-74
2023/05/03 02:49:07;;;;;;;0.00;0.00;;;12.10;99.90;;;;;;5046995;28;20099;-74
2023/05/03 02:51:35;;;;;;;0.00;0.00;;;12.10;99.90;;;;;;5052390;28;20031;-75
2023/05/03 02:54:02;;;;;;;0.00;0.00;;;12.10;99.90;;;;;;5054635;28;20514;-75
2023/05/03 02:56:29;;;;;;;0.20;0.10;;;12.10;99.90;;;;;;5058131;28;20025;-74
2023/05/03 02:58:57;;;;;;;0.47;0.38;;;12.10;99.90;;;;;;5047909;28;20036;-75
2023/05/03 03:01:22;;;;;;;0.00;0.00;;;12.20;99.90;;;;;;5048938;28;20419;-74
2023/05/03 03:03:48;;;;;;;0.00;0.00;;;12.20;99.90;;;;;;5056699;28;20021;-74
2023/05/03 03:06:13;;;;;;;0.83;0.20;;;12.10;99.90;;;;;;5076182;28;20024;-75
2023/05/03 03:08:40;;;;;;;0.00;0.00;;;12.20;99.90;;;;;;5049932;28;20571;-75
2023/05/03 03:11:06;;;;;;;0.00;0.00;;;12.20;99.90;;;;;;5074130;28;20032;-75
2023/05/03 03:13:32;;;;;;;0.00;0.00;;;12.20;99.90;;;;;;5069477;28;20028;-75
2023/05/03 03:15:58;;;;;;;0.03;0.03;;;12.20;99.90;;;;;;5047312;28;20359;-74
2023/05/03 03:18:23;;;;;;;0.00;0.00;;;12.20;99.90;;;;;;5055713;28;20649;-74
2023/05/03 03:20:52;;;;;;;0.00;0.00;;;12.20;99.90;;;;;;5068517;28;20604;-74
2023/05/03 03:23:18;;;;;;;0.00;0.00;;;12.20;99.90;;;;;;5072098;28;20048;-74
2023/05/03 03:25:43;;;;;;;0.00;0.00;;;12.20;99.90;;;;;;5051281;28;20057;-74
2023/05/03 03:28:09;;;;;;;0.00;0.00;;;12.20;99.90;;;;;;5071382;28;20329;-74
2023/05/03 03:30:35;;;;;;;0.13;0.07;;;12.10;99.90;;;;;;5048990;28;20024;-74
2023/05/03 03:33:00;;;;;;;0.00;0.00;;;12.10;99.90;;;;;;5044708;28;20108;-74
2023/05/03 03:35:29;;;;;;;0.00;0.00;;;12.10;99.90;;;;;;5054570;28;20470;-74
2023/05/03 03:37:56;;;;;;;0.00;0.00;;;12.00;99.90;;;;;;5052374;28;20860;-74
2023/05/03 03:40:21;;;;;;;;;;;12.10;99.90;;;;;;5056818;28;20752;-74
2023/05/03 03:42:48;;;;;;;0.00;0.00;;;12.10;99.90;;;;;;5056688;28;19904;-74
2023/05/03 03:45:13;;;;;;;;;;;12.10;99.90;;;;;;5053649;28;20020;-74
2023/05/03 03:47:39;;;;;;;0.00;0.00;;;12.10;99.90;;;;;;5047843;28;19911;-74
2023/05/03 03:50:05;;;;;;;0.00;0.00;;;12.20;99.90;;;;;;5073730;28;20025;-74
2023/05/03 03:52:31;;;;;;;0.00;0.00;;;12.20;99.90;;;;;;5048714;28;20295;-74
2023/05/03 03:54:57;;;;;;;0.00;0.00;;;12.20;99.90;;;;;;5055617;28;20703;-74
2023/05/03 03:57:28;;;;;;;0.00;0.00;;;12.30;99.90;;;;;;5073642;28;20259;-74
2023/05/03 03:59:56;;;;;;;0.10;0.10;;;12.20;99.90;;;;;;5054807;28;20017;-74
2023/05/03 04:02:22;;;;;;;0.00;0.00;;;12.30;99.90;;;;;;5071541;28;20021;-74
2023/05/03 04:04:47;;;;;;;0.30;0.17;;;12.20;99.90;;;;;;5066008;28;20025;-74
2023/05/03 04:07:13;;;;;;;0.00;0.00;;;12.30;99.90;;;;;;5063248;28;20017;-74
2023/05/03 04:09:40;;;;;;;0.47;0.47;;;12.30;99.90;;;;;;5073230;28;20694;-75
2023/05/03 04:12:06;;;;;;;0.65;0.65;;;12.30;99.90;;;;;;5051786;28;20527;-74
2023/05/03 04:14:31;;;;;;;0.00;0.00;;;12.30;99.90;;;;;;5050875;28;20021;-73
2023/05/03 04:17:03;;;;;;;0.00;0.00;;;12.30;99.90;;;;;;5051269;28;20430;-74
2023/05/03 04:19:30;;;;;;;0.00;0.00;;;12.40;99.90;;;;;;5046398;28;20020;-74
2023/05/03 04:21:57;;;;;;;0.00;0.00;;;12.40;99.90;;;;;;5054200;28;20043;-74
2023/05/03 04:24:22;;;;;;;0.43;0.15;;;12.50;99.90;;;;;;5045991;28;20774;-76
2023/05/03 04:26:50;;;;;;;0.13;0.13;;;12.60;99.90;;;;;;5049722;28;20029;-75
2023/05/03 04:29:18;;;;;;;0.20;0.10;;;12.60;99.90;;;;;;5053429;28;20024;-75
2023/05/03 04:31:44;;;;;;;0.00;0.00;;;12.70;99.90;;;;;;5051833;28;20025;-74
2023/05/03 04:34:13;;;;;;;0.00;0.00;;;12.70;99.90;;;;;;5049927;28;20070;-74
2023/05/03 04:36:49;;;;;;;0.00;0.00;;;12.80;99.90;;;;;;5048705;28;20048;-75
2023/05/03 04:39:16;;;;;;;0.00;0.00;;;12.80;99.90;;;;;;5050183;28;20446;-74
2023/05/03 04:41:42;;;;;;;0.00;0.00;;;12.90;99.90;;;;;;5048765;28;20060;-74
2023/05/03 04:44:07;;;;;;;0.00;0.00;;;13.00;99.90;;;;;;5045576;28;20040;-74
2023/05/03 04:46:35;;;;;;;0.00;0.00;;;13.00;99.90;;;;;;5046957;28;20651;-74
2023/05/03 04:49:03;;;;;;;0.00;0.00;;;13.00;99.90;;;;;;5063069;28;20267;-75
2023/05/03 04:51:29;;;;;;;0.00;0.00;;;13.10;99.90;;;;;;5051776;28;20792;-74
2023/05/03 04:53:55;;;;;;;0.00;0.00;;;13.20;99.90;;;;;;5053099;28;20142;-74
2023/05/03 04:56:25;;;;;;;0.05;0.05;;;13.30;99.90;;;;;;5062539;28;20025;-74
2023/05/03 04:58:51;;;;;;;0.00;0.00;;;13.20;99.90;;;;;;5065285;28;20024;-74
2023/05/03 05:01:25;;;;;;;0.10;0.10;;;13.20;99.90;;;;;;5055850;28;20022;-74
2023/05/03 05:03:52;;;;;;;0.10;0.10;;;13.20;99.90;;;;;;5045358;28;20032;-74
2023/05/03 05:06:21;;;;;;;0.15;0.15;;;13.30;99.90;;;;;;5064361;28;20066;-75
2023/05/03 05:08:49;;;;;;;0.17;0.17;;;13.30;99.90;;;;;;5056050;28;20032;-74
2023/05/03 05:11:15;;;;;;;0.75;0.30;;;13.40;99.90;;;;;;5066007;28;20060;-75
2023/05/03 05:13:44;;;;;;;0.47;0.20;;;13.50;99.90;;;;;;5049624;28;20059;-75
2023/05/03 05:16:10;;;;;;;0.00;0.00;;;13.80;99.90;;;;;;5062188;28;20508;-74
2023/05/03 05:18:38;;;;;;;0.43;0.43;;;13.80;99.90;;;;;;5049436;28;20021;-78
2023/05/03 05:21:03;;;;;;;0.00;0.00;;;14.10;99.90;;;;;;5053618;28;20012;-78
2023/05/03 05:23:35;;;;;;;0.00;0.00;;;14.40;99.90;;;;;;5046114;28;20017;-79
2023/05/03 05:26:00;;;;;;;0.20;0.20;;;14.60;99.90;;;;;;5066078;28;20017;-79
2023/05/03 05:28:27;;;;;;;0.00;0.00;;;14.90;99.90;;;;;;5052032;28;20089;-78
2023/05/03 05:30:54;;;;;;;0.10;0.10;;;15.00;99.90;;;;;;5053224;28;20474;-79
2023/05/03 05:33:23;;;;;;;0.00;0.00;;;15.00;99.90;;;;;;5071149;28;20130;-79
2023/05/03 05:35:49;;;;;;;0.00;0.00;;;15.10;99.90;;;;;;5067510;28;20032;-79
2023/05/03 05:38:18;;;;;;;0.00;0.00;;;15.30;99.90;;;;;;5072475;28;20020;-79
2023/05/03 05:40:45;;;;;;;0.00;0.00;;;15.50;99.90;;;;;;5065363;28;20032;-79
2023/05/03 05:43:14;;;;;;;0.00;0.00;;;15.70;99.90;;;;;;5047006;28;20035;-80
2023/05/03 05:45:41;;;;;;;0.00;0.00;;;16.20;99.90;;;;;;5065287;28;20094;-79
2023/05/03 05:48:09;;;;;;;0.00;0.00;;;16.40;99.90;;;;;;5048902;28;20013;-79
2023/05/03 05:50:46;;;;;;;0.32;0.10;;;17.00;99.90;;;;;;5047210;28;20032;-79
2023/05/03 05:53:16;;;;;;;0.20;0.20;;;17.80;99.90;;;;;;5047788;28;20414;-79
2023/05/03 05:55:50;;;;;;;0.05;0.05;;;18.50;99.90;;;;;;5056553;28;20060;-80
2023/05/03 05:58:16;;;;;;;0.52;0.10;;;19.10;99.90;;;;;;5068041;28;20021;-79
2023/05/03 06:00:44;;;;;;;;;;;19.10;99.90;;;;;;5048638;28;20075;-78
2023/05/03 06:03:10;;;;;;;0.00;0.00;;;18.90;99.90;;;;;;5053451;28;19904;-79
2023/05/03 06:05:40;;;;;;;0.00;0.00;;;18.20;99.90;;;;;;5065984;28;20440;-79
2023/05/03 06:08:12;;;;;;;0.08;0.08;;;17.90;99.90;;;;;;5054678;28;20021;-79
2023/05/03 06:10:39;;;;;;;0.00;0.00;;;17.40;99.90;;;;;;5069358;28;20773;-79
2023/05/03 06:13:06;;;;;;;0.15;0.15;;;16.80;99.90;;;;;;5071265;28;20032;-79
2023/05/03 06:15:34;;;;;;;0.00;0.00;;;16.80;99.90;;;;;;5068288;28;20047;-79
2023/05/03 06:18:03;;;;;;;0.00;0.00;;;16.50;99.90;;;;;;5071485;28;20025;-79
2023/05/03 06:20:36;;;;;;;0.00;0.00;;;16.50;99.90;;;;;;5064975;28;20017;-79
2023/05/03 06:23:03;;;;;;;0.00;0.00;;;16.60;99.90;;;;;;5067320;28;20569;-79
2023/05/03 06:25:31;;;;;;;0.00;0.00;;;16.20;99.90;;;;;;5069179;28;20033;-79
2023/05/03 06:27:59;;;;;;;0.10;0.10;;;16.20;99.90;;;;;;5048867;28;20032;-79
2023/05/03 06:30:27;;;;;;;0.00;0.00;;;16.50;99.90;;;;;;5057195;28;20024;-80
2023/05/03 06:32:52;;;;;;;0.28;0.28;;;16.90;99.90;;;;;;5073298;28;20024;-79
2023/05/03 06:35:20;;;;;;;0.00;0.00;;;17.70;99.90;;;;;;5070817;28;20528;-79
2023/05/03 06:37:47;;;;;;;0.00;0.00;;;18.00;99.90;;;;;;5051003;28;20143;-79
2023/05/03 06:40:14;;;;;;;;;;;17.90;99.90;;;;;;5072509;28;20025;-79
2023/05/03 06:42:40;;;;;;;0.00;0.00;;;17.50;99.90;;;;;;5053268;28;19909;-80
2023/05/03 06:45:07;;;;;;;0.10;0.10;;;17.20;99.90;;;;;;5058908;28;20098;-79
2023/05/03 06:47:32;;;;;;;0.38;0.38;;;17.40;99.90;;;;;;5063840;28;20055;-80
2023/05/03 06:50:00;;;;;;;0.00;0.00;;;18.10;99.90;;;;;;5067764;28;20055;-80
2023/05/03 06:52:26;;;;;;;0.00;0.00;;;18.60;99.90;;;;;;5045821;28;20121;-79
2023/05/03 06:54:52;;;;;;;0.00;0.00;;;19.30;99.90;;;;;;5042021;28;20124;-80
2023/05/03 06:57:21;;;;;;;0.10;0.10;;;19.80;99.90;;;;;;5061111;28;20029;-81
2023/05/03 06:59:51;;;;;;;0.20;0.20;;;20.70;99.90;;;;;;5053434;28;20021;-81
2023/05/03 07:02:17;;;;;;;0.00;0.00;;;20.80;99.90;;;;;;5063551;28;20051;-78
2023/05/03 07:04:45;;;;;;;0.10;0.10;;;21.70;99.10;;;;;;5049725;28;20048;-78
2023/05/03 07:07:12;;;;;;;0.17;0.03;;;22.10;97.40;;;;;;5048898;28;20028;-79
2023/05/03 07:09:48;;;;;;;0.00;0.00;;;20.90;98.50;;;;;;5047372;28;20025;-80
2023/05/03 07:12:27;;;;;;;0.00;0.00;;;19.20;99.90;;;;;;5050212;28;20479;-80
2023/05/03 07:14:58;;;;;;;0.00;0.00;;;18.20;99.90;;;;;;5046788;28;20580;-79
2023/05/03 07:17:27;;;;;;;0.03;0.03;;;19.00;99.90;;;;;;5069286;28;20083;-80
2023/05/03 07:19:53;;;;;;;0.43;0.15;;;19.40;99.90;;;;;;5044501;28;20104;-77
2023/05/03 07:22:26;;;;;;;0.00;0.00;;;20.80;99.90;;;;;;5061400;28;20781;-78
2023/05/03 07:24:58;;;;;;;0.00;0.00;;;20.70;99.90;;;;;;5064897;28;20034;-78
2023/05/03 07:27:30;;;;;;;0.00;0.00;;;20.80;99.50;;;;;;5070320;28;20708;-81
2023/05/03 07:29:56;;;;;;;0.32;0.10;;;20.90;99.70;;;;;;5055906;28;20028;-81
2023/05/03 07:32:24;;;;;;;0.03;0.03;;;21.10;99.20;;;;;;5046824;28;20478;-80
2023/05/03 07:34:51;;;;;;;0.00;0.00;;;21.80;98.10;;;;;;5069723;28;20056;-78
2023/05/03 07:37:17;;;;;;;0.20;0.15;;;21.60;98.10;;;;;;5053259;28;20370;-80
2023/05/03 07:39:48;;;;;;;0.10;0.10;;;20.30;99.30;;;;;;5054619;28;20501;-80
2023/05/03 07:42:14;;;;;;;0.00;0.00;;;20.00;99.90;;;;;;5061908;28;20104;-80
2023/05/03 07:44:51;;;;;;;0.03;0.03;;;20.10;99.90;;;;;;5056302;28;20438;-79
2023/05/03 07:47:16;;;;;;;0.10;0.10;;;18.70;99.90;;;;;;5062182;28;20017;-79
2023/05/03 07:49:42;;;;;;;0.00;0.00;;;19.30;99.90;;;;;;5072212;28;20116;-79
2023/05/03 07:52:09;;;;;;;0.52;0.25;;;19.20;99.90;;;;;;5073154;28;20028;-78
2023/05/03 07:54:52;;;;;;;0.00;0.00;;;20.10;99.90;;;;;;5052428;28;20107;-79
2023/05/03 07:57:19;;;;;;;0.00;0.00;;;19.70;99.90;;;;;;5051925;28;20024;-79
2023/05/03 07:59:44;;;;;;;0.00;0.00;;;19.90;99.90;;;;;;5065774;28;20032;-79
2023/05/03 08:02:15;;;;;;;0.10;0.10;;;21.50;99.70;;;;;;5067487;28;20736;-79
2023/05/03 08:04:43;;;;;;;0.00;0.00;;;21.40;98.80;;;;;;5050676;28;21641;-79
2023/05/03 08:07:13;;;;;;;0.00;0.00;;;20.90;99.20;;;;;;5055917;28;20485;-81
2023/05/03 08:09:40;;;;;;;0.00;0.00;;;20.80;99.90;;;;;;5052739;28;20021;-78
2023/05/03 08:12:07;;;;;;;0.00;0.00;;;22.90;97.80;;;;;;5071179;28;20115;-77
2023/05/03 08:14:35;;;;;;;0.00;0.00;;;25.40;93.30;;;;;;5055619;28;20035;-78
2023/05/03 08:17:15;;;;;;;0.10;0.10;;;27.10;85.80;;;;;;5056215;28;20223;-78
2023/05/03 08:19:46;;;;;;;0.00;0.00;;;25.70;81.60;;;;;;5055043;28;21400;-78
2023/05/03 08:22:17;;;;;;;0.13;0.13;;;26.20;80.10;;;;;;5070846;28;20039;-77
2023/05/03 08:24:45;;;;;;;0.00;0.00;;;24.90;79.80;;;;;;5065092;28;20670;-78
2023/05/03 08:27:16;;;;;;;0.08;0.08;;;25.80;79.00;;;;;;5053828;28;20044;-78
2023/05/03 08:29:44;;;;;;;0.10;0.10;;;24.60;78.40;;;;;;5053231;28;20396;-79
2023/05/03 08:32:16;;;;;;;0.00;0.00;;;24.60;81.90;;;;;;5067409;28;20512;-78
2023/05/03 08:34:43;;;;;;;0.28;0.28;;;26.60;76.60;;;;;;5066784;28;20053;-78
2023/05/03 08:37:12;;;;;;;0.00;0.00;;;27.00;74.30;;;;;;5067847;28;20021;-79
2023/05/03 08:39:41;;;;;;;0.05;0.03;;;27.30;70.70;;;;;;5046816;28;20051;-78
2023/05/03 08:42:08;;;;;;;0.25;0.13;;;26.40;70.10;;;;;;5046545;28;20075;-79
2023/05/03 08:44:36;;;;;;;0.10;0.10;;;24.80;73.10;;;;;;5058139;28;20021;-78
2023/05/03 08:47:05;;;;;;;0.00;0.00;;;25.40;73.30;;;;;;5052415;28;20024;-79
2023/05/03 08:49:35;;;;;;;0.00;0.00;;;25.20;72.80;;;;;;5048998;28;20543;-78
2023/05/03 08:52:05;;;;;;;0.00;0.00;;;24.80;74.80;;;;;;5062334;28;20081;-79
2023/05/03 08:54:40;;;;;;;0.15;0.15;;;25.00;73.60;;;;;;5059532;28;20370;-79
2023/05/03 08:57:16;;;;;;;0.65;0.40;;;25.10;72.50;;;;;;5062691;28;20032;-78
2023/05/03 09:00:00;;;;;;;0.38;0.38;;;25.60;72.40;;;;;;5049871;28;20481;-78
2023/05/03 09:02:35;;;;;;;0.00;0.00;;;26.10;69.30;;;;;;5049705;28;20024;-78
2023/05/03 09:05:14;;;;;;;0.00;0.00;;;25.80;69.70;;;;;;5062793;28;20017;-78
2023/05/03 09:07:40;;;;;;;0.00;0.00;;;25.70;70.30;;;;;;5047166;28;20775;-78
2023/05/03 09:10:27;;;;;;;0.00;0.00;;;25.60;69.80;;;;;;5052270;28;20508;-78
2023/05/03 09:12:56;;;;;;;;;;;25.90;69.60;;;;;;5045256;28;20486;-79
2023/05/03 09:15:22;;;;;;;0.00;0.00;;;24.80;70.50;;;;;;5043453;28;19944;-78
2023/05/03 09:18:05;;;;;;;;;;;23.50;72.70;;;;;;5056333;28;20497;-79
2023/05/03 09:20:35;;;;;;;0.00;0.00;;;22.50;75.90;;;;;;5064690;28;19904;-79
2023/05/03 09:23:01;;;;;;;0.00;0.00;;;22.40;75.90;;;;;;5048496;28;20023;-79
2023/05/03 09:25:47;;;;;;;0.00;0.00;;;22.40;76.50;;;;;;5059668;28;20482;-78
2023/05/03 09:28:14;;;;;;;0.00;0.00;;;23.60;74.10;;;;;;5045432;28;20094;-78
2023/05/03 09:30:41;;;;;;;0.00;0.00;;;25.70;70.60;;;;;;5047300;28;20258;-79
2023/05/03 09:33:07;;;;;;;0.00;0.00;;;25.30;69.60;;;;;;5062420;28;20478;-77
2023/05/03 09:35:33;;;;;;;;;;;25.30;70.30;;;;;;5061838;28;20111;-79
2023/05/03 09:38:00;;;;;;;0.00;0.00;;;23.90;72.60;;;;;;5050546;28;19955;-77
2023/05/03 09:40:45;;;;;;;0.00;0.00;;;26.40;70.90;;;;;;5049658;28;20735;-78
2023/05/03 09:43:15;;;;;;;0.00;0.00;;;26.30;68.90;;;;;;5069078;28;20131;-79
2023/05/03 09:45:40;;;;;;;0.00;0.00;;;24.90;70.30;;;;;;5063786;28;20035;-78
2023/05/03 09:48:07;;;;;;;;;;;26.40;66.20;;;;;;5061100;28;20020;-78
2023/05/03 09:50:35;;;;;;;0.00;0.00;;;28.30;65.30;;;;;;5061461;28;20529;-78
2023/05/03 09:53:05;;;;;;;0.00;0.00;;;28.10;64.40;;;;;;5057264;28;20033;-78
2023/05/03 09:55:38;;;;;;;0.00;0.00;;;27.40;64.90;;;;;;5065189;28;20070;-77
2023/05/03 09:58:06;;;;;;;0.00;0.00;;;26.30;65.40;;;;;;5049684;28;20052;-76
2023/05/03 10:00:38;;;;;;;0.00;0.00;;;25.60;65.70;;;;;;5057254;28;20021;-76
2023/05/03 10:03:09;;;;;;;0.00;0.00;;;26.30;66.70;;;;;;5065415;28;20023;-76
2023/05/03 10:05:54;;;;;;;0.00;0.00;;;26.80;62.70;;;;;;5050024;28;20025;-75
2023/05/03 10:08:34;;;;;;;0.00;0.00;;;26.70;64.30;;;;;;5069000;28;20025;-78
2023/05/03 10:11:03;;;;;;;0.20;0.05;;;28.80;62.60;;;;;;5062144;28;20492;-78
2023/05/03 10:13:29;;;;;;;0.60;0.22;;;30.20;59.70;;;;;;5063677;28;20024;-79
2023/05/03 10:16:04;;;;;;;0.65;0.65;;;26.50;61.70;;;;;;5045647;28;21015;-79
2023/05/03 10:18:33;;;;;;;0.45;0.20;;;24.10;66.60;;;;;;5063892;28;20488;-79
2023/05/03 10:21:10;;;;;;;0.00;0.00;;;22.50;70.20;;;;;;5061895;28;20066;-81
2023/05/03 10:24:14;;;;;;;0.00;0.00;;;21.30;72.60;;;;;;5060503;28;20128;-78
2023/05/03 10:26:48;;;;;;;0.00;0.00;;;21.30;75.20;;;;;;5047373;28;20064;-79
2023/05/03 10:29:47;;;;;;;0.00;0.00;;;22.60;73.40;;;;;;5051313;28;20025;-78
2023/05/03 10:32:31;;;;;;;0.05;0.05;;;23.60;70.70;;;;;;5053782;28;20024;-80
2023/05/03 10:35:16;;;;;;;0.00;0.00;;;22.60;71.10;;;;;;5064235;28;20050;-78
2023/05/03 10:37:48;;;;;;;0.00;0.00;;;21.60;74.30;;;;;;5039787;28;20754;-76
2023/05/03 10:40:21;;;;;;;0.20;0.10;;;22.60;73.90;;;;;;5048440;28;20070;-77
2023/05/03 10:42:56;;;;;;;0.25;0.25;;;23.60;72.40;;;;;;5062628;28;20031;-77
2023/05/03 10:45:27;;;;;;;0.00;0.00;;;26.60;67.20;;;;;;5057038;28;20021;-76
2023/05/03 10:48:19;;;;;;;0.00;0.00;;;26.90;64.90;;;;;;5060089;28;20679;-76
2023/05/03 10:50:51;;;;;;;0.00;0.00;;;27.20;64.40;;;;;;5046214;28;20025;-76
2023/05/03 10:53:40;;;;;;;0.05;0.05;;;28.30;61.60;;;;;;5050278;28;20012;-76
2023/05/03 10:56:18;;;;;;;0.00;0.00;;;26.60;62.90;;;;;;5059704;28;20028;-78
2023/05/03 10:58:49;;;;;;;0.10;0.10;;;23.00;67.60;;;;;;5044032;28;20025;-79
2023/05/03 11:01:23;;;;;;;0.05;0.05;;;22.00;70.80;;;;;;5063697;28;20025;-75
2023/05/03 11:03:53;;;;;;;0.00;0.00;;;21.90;70.50;;;;;;5053584;28;20053;-78
2023/05/03 11:06:40;;;;;;;0.00;0.00;;;20.90;72.20;;;;;;5046666;28;20025;-78
2023/05/03 11:09:08;;;;;;;0.00;0.00;;;20.50;73.60;;;;;;5050632;28;20013;-78
2023/05/03 11:11:38;;;;;;;0.00;0.00;;;20.40;74.30;;;;;;5045810;28;20025;-79
2023/05/03 11:14:07;;;;;;;0.00;0.00;;;20.70;73.40;;;;;;5051674;28;20088;-78
2023/05/03 11:16:35;;;;;;;0.00;0.00;;;19.50;73.60;;;;;;5062969;28;20367;-78
2023/05/03 11:19:05;;;;;;;0.00;0.00;;;19.20;76.00;;;;;;5068317;28;20587;-78
2023/05/03 11:21:32;;;;;;;0.32;0.32;;;19.40;76.80;;;;;;5058452;28;20485;-79
2023/05/03 11:24:03;;;;;;;0.00;0.00;;;19.50;78.90;;;;;;5051092;28;20441;-79
2023/05/03 11:26:38;;;;;;;0.00;0.00;;;19.50;80.20;;;;;;5060875;28;20036;-78
2023/05/03 11:29:10;;;;;;;0.20;0.20;;;19.70;80.30;;;;;;5062847;28;20469;-79
2023/05/03 11:31:36;;;;;;;0.00;0.00;;;20.00;79.80;;;;;;5046871;28;20036;-77
2023/05/03 11:34:05;;;;;;;0.00;0.00;;;20.10;80.20;;;;;;5051254;28;20028;-79
2023/05/03 11:36:33;;;;;;;0.00;0.00;;;19.90;80.20;;;;;;5048467;28;20021;-80
2023/05/03 11:39:05;;;;;;;0.00;0.00;;;19.70;81.10;;;;;;5068184;28;20020;-78
2023/05/03 11:41:33;;;;;;;0.00;0.00;;;19.70;81.10;;;;;;5055696;28;20055;-78
2023/05/03 11:44:01;;;;;;;0.00;0.00;;;19.60;82.50;;;;;;5050506;28;20470;-78
2023/05/03 11:46:37;;;;;;;0.00;0.00;;;19.50;82.40;;;;;;5051696;28;20032;-79
2023/05/03 11:49:02;;;;;;;0.03;0.03;;;19.00;84.80;;;;;;5062732;28;20032;-79
2023/05/03 11:51:30;;;;;;;0.00;0.00;;;19.20;84.30;;;;;;5056229;28;20433;-79
2023/05/03 11:54:01;;;;;;;0.00;0.00;;;18.70;83.40;;;;;;5068800;28;20033;-78
2023/05/03 11:56:28;;;;;;;0.00;0.00;;;18.40;82.70;;;;;;5051906;28;20020;-77
2023/05/03 11:58:58;;;;;;;0.00;0.00;;;18.10;83.20;;;;;;5069709;28;20075;-77
2023/05/03 12:01:26;;;;;;;0.00;0.00;;;18.40;83.20;;;;;;5048765;28;20051;-78
2023/05/03 12:03:58;;;;;;;0.15;0.15;;;18.60;83.60;;;;;;5069154;28;20032;-78
2023/05/03 12:06:33;;;;;;;1.05;0.30;;;18.70;83.00;;;;;;5050751;28;20013;-78
2023/05/03 12:09:11;;;;;;;0.00;0.00;;;18.50;83.50;;;;;;5050666;28;20386;-78
2023/05/03 12:11:41;;;;;;;0.00;0.00;;;18.60;85.10;;;;;;5063754;28;20020;-77
2023/05/03 12:14:11;;;;;;;0.00;0.00;;;18.50;85.40;;;;;;5052455;28;20043;-78
2023/05/03 12:16:48;;;;;;;0.00;0.00;;;18.70;85.90;;;;;;5051771;28;20028;-80
2023/05/03 12:19:28;;;;;;;0.00;0.00;;;19.00;84.70;;;;;;5049458;28;20131;-80
2023/05/03 12:22:04;;;;;;;0.00;0.00;;;18.70;85.60;;;;;;5069094;28;20017;-79
2023/05/03 12:24:35;;;;;;;0.00;0.00;;;18.50;87.00;;;;;;5051733;28;20185;-81
2023/05/03 12:27:01;;;;;;;0.00;0.00;;;18.40;87.90;;;;;;5072499;28;20020;-80
2023/05/03 12:29:32;;;;;;;0.00;0.00;;;18.60;90.30;;;;;;5063949;28;20036;-79
2023/05/03 12:32:01;;;;;;;0.00;0.00;;;18.60;89.10;;;;;;5065878;28;20056;-80
2023/05/03 12:34:34;;;;;;;0.10;0.10;;;18.10;89.10;;;;;;5051394;28;20021;-80
2023/05/03 12:37:09;;;;;;;0.00;0.00;;;17.90;90.20;;;;;;5069240;28;20013;-80
2023/05/03 12:39:35;;;;;;;0.10;0.03;;;17.80;90.70;;;;;;5046190;28;20532;-79
2023/05/03 12:42:12;;;;;;;0.00;0.00;;;17.80;91.20;;;;;;5062431;28;20077;-78
2023/05/03 12:44:41;;;;;;;0.00;0.00;;;17.50;91.80;;;;;;5068807;28;20016;-78
2023/05/03 12:47:09;;;;;;;0.00;0.00;;;17.30;92.90;;;;;;5070277;28;20027;-77
2023/05/03 12:49:35;;;;;;;0.10;0.10;;;17.20;94.10;;;;;;5069232;28;20035;-78
2023/05/03 12:52:05;;;;;;;0.00;0.00;;;17.10;95.10;;;;;;5067456;28;20415;-78
2023/05/03 12:54:34;;;;;;;0.00;0.00;;;17.10;95.80;;;;;;5071614;28;20025;-79
2023/05/03 12:57:02;;;;;;;0.00;0.00;;;17.20;95.60;;;;;;5054819;28;20028;-78
2023/05/03 12:59:38;;;;;;;0.00;0.00;;;17.30;95.70;;;;;;5050254;28;20097;-79
2023/05/03 13:02:05;;;;;;;1.10;0.20;;;17.50;96.20;;;;;;5065218;28;20021;-77